Christina O — C6FN7 — position and weather

sailwx.info

Track history (hours):
 
Tides and Currents Weather Stations Pressure Air Temp Water Temp Dewpoint Dewpoint Depression Visibility Wind Speed Wind Dir Waves Ship Positions

Christina O

Operator: V Ships Leisure SAM

Last reported at 2017-Dec-11 17:00 UTC. Time now 2017-Dec-14 15:10 UTC.
Position N 17°07' W 061°51'.

Length 186 m; draft 6.1 m.

Type: Passenger vessel. MMSI: 308322000.

Date/timePositionNaut miles runAvg speedWind from/ knotsBaromVisibWave heightAir tempDewpointWater temp
2017-Dec-11 17:00N 17°07' W 061°51'0 0.0
2017-Dec-11 16:30N 17°07' W 061°51'0 0.0
2017-Dec-11 16:00N 17°07' W 061°51'0 0.0
2017-Dec-11 15:30N 17°07' W 061°51'0 0.0
2017-Dec-11 15:00N 17°07' W 061°51'0 0.0
2017-Dec-11 14:30N 17°07' W 061°51'0 0.0
2017-Dec-11 14:00N 17°07' W 061°51'0 0.0
2017-Dec-11 13:30N 17°07' W 061°51'0 0.0
2017-Dec-11 13:00N 17°07' W 061°51'0 0.0
2017-Dec-11 12:30N 17°07' W 061°51'0 0.0
2017-Dec-11 12:00N 17°07' W 061°51'0 0.0
2017-Dec-11 11:30N 17°07' W 061°51'0 0.3
2017-Dec-11 11:01N 17°07' W 061°51'3 6.7
2017-Dec-11 10:31N 17°08' W 061°54'4 8.5
2017-Dec-11 10:01N 17°11' W 061°58'5 9.9
2017-Dec-11 09:31N 17°14' W 062°02'5 9.9
2017-Dec-11 09:01N 17°17' W 062°06'5 9.9
2017-Dec-11 08:31N 17°20' W 062°10'510.2
2017-Dec-11 08:00N 17°23' W 062°14'510.1
2017-Dec-11 07:30N 17°26' W 062°19'510.2
2017-Dec-11 07:00N 17°29' W 062°23'510.0
2017-Dec-11 06:31N 17°32' W 062°27'510.0
2017-Dec-11 06:01N 17°35' W 062°31'510.2
2017-Dec-11 05:31N 17°38' W 062°36'510.0
2017-Dec-11 05:01N 17°41' W 062°40'510.0
2017-Dec-11 04:29N 17°44' W 062°44'5 9.9
2017-Dec-11 03:56N 17°48' W 062°49'710.0
2017-Dec-11 03:16N 17°52' W 062°54'2 8.7
2017-Dec-11 02:59N 17°54' W 062°54'2 2.4
2017-Dec-11 02:16N 17°54' W 062°52'0 0.0
2017-Dec-10 19:49N 17°54' W 062°52'0 0.0
2017-Dec-10 19:25N 17°54' W 062°52'0 0.0
2017-Dec-10 15:13N 17°54' W 062°52'3 1.2
2017-Dec-10 12:24N 17°52' W 062°54'814.8
2017-Dec-10 11:53N 17°44' W 062°55'614.7
2017-Dec-10 11:27N 17°38' W 062°54'1114.4
2017-Dec-10 10:40N 17°26' W 062°54'414.0
2017-Dec-10 10:25N 17°23' W 062°54'3215.9
2017-Dec-10 08:23N 16°53' W 062°42'1016.0
2017-Dec-10 07:46N 16°45' W 062°36'415.7
2017-Dec-10 07:31N 16°41' W 062°34'815.9
2017-Dec-10 07:01N 16°34' W 062°30'816.3
2017-Dec-10 06:31N 16°28' W 062°25'816.2
2017-Dec-10 06:01N 16°21' W 062°21'816.4
2017-Dec-10 05:30N 16°14' W 062°16'916.6
2017-Dec-10 04:59N 16°06' W 062°11'4216.7
2017-Dec-10 02:26N 15°31' W 061°47'916.4
2017-Dec-10 01:52N 15°23' W 061°42'616.7
2017-Dec-10 01:30N 15°17' W 061°39'816.6
2017-Dec-10 01:00N 15°11' W 061°34'3016.0
2017-Dec-09 23:08N 14°46' W 061°17'216.4
2017-Dec-09 22:59N 14°43' W 061°16'816.2
2017-Dec-09 22:30N 14°38' W 061°10'612.2
2017-Dec-09 22:01N 14°36' W 061°05'0 0.2
2017-Dec-09 20:15N 14°36' W 061°04'0 0.0
2017-Dec-09 20:00N 14°36' W 061°04'0 0.0
2017-Dec-09 19:18N 14°36' W 061°04'0 0.0
2017-Dec-09 19:00N 14°36' W 061°04'0 0.0
2017-Dec-09 18:15N 14°36' W 061°04'0 0.0
2017-Dec-09 17:54N 14°36' W 061°04'0 0.0
2017-Dec-09 12:14N 14°36' W 061°04'0 1.4
2017-Dec-09 12:00N 14°36' W 061°05'5 8.0
2017-Dec-09 11:25N 14°33' W 061°09'3 7.6
2017-Dec-09 11:00N 14°32' W 061°11'3 5.7
2017-Dec-09 10:30N 14°29' W 061°13'4 8.5
2017-Dec-09 10:00N 14°25' W 061°12'4 8.3
2017-Dec-09 09:30N 14°21' W 061°13'4 8.1
2017-Dec-09 09:00N 14°17' W 061°13'4 8.2
2017-Dec-09 08:30N 14°13' W 061°14'5 8.0
2017-Dec-09 07:57N 14°08' W 061°14'  
2017-Dec-02 14:24N 00°11' W 050°45'614.2
2017-Dec-02 14:00N 00°10' W 050°50'714.8
2017-Dec-02 13:30N 00°08' W 050°57'816.1
2017-Dec-02 13:00N 00°01' W 051°01'815.8
2017-Dec-02 12:31S 00°05' W 051°07'713.3
2017-Dec-02 12:01S 00°08' W 051°12'611.3
2017-Dec-02 11:31S 00°12' W 051°17'  
Track history (hours):
 
Tides and Currents Weather Stations Pressure Air Temp Water Temp Dewpoint Dewpoint Depression Visibility Wind Speed Wind Dir Waves Ship Positions

Christina O

Operator: V Ships Leisure SAM

Last reported at 2017-Dec-11 17:00 UTC. Time now 2017-Dec-14 15:10 UTC.
Position N 17°07' W 061°51'.

Length 186 m; draft 6.1 m.

Type: Passenger vessel. MMSI: 308322000.

Date/timePositionNaut miles runAvg speedWind from/ knotsBaromVisibWave heightAir tempDewpointWater temp
2017-Dec-11 17:00N 17°07' W 061°51'0 0.0
2017-Dec-11 16:30N 17°07' W 061°51'0 0.0
2017-Dec-11 16:00N 17°07' W 061°51'0 0.0
2017-Dec-11 15:30N 17°07' W 061°51'0 0.0
2017-Dec-11 15:00N 17°07' W 061°51'0 0.0
2017-Dec-11 14:30N 17°07' W 061°51'0 0.0
2017-Dec-11 14:00N 17°07' W 061°51'0 0.0
2017-Dec-11 13:30N 17°07' W 061°51'0 0.0
2017-Dec-11 13:00N 17°07' W 061°51'0 0.0
2017-Dec-11 12:30N 17°07' W 061°51'0 0.0
2017-Dec-11 12:00N 17°07' W 061°51'0 0.0
2017-Dec-11 11:30N 17°07' W 061°51'0 0.3
2017-Dec-11 11:01N 17°07' W 061°51'3 6.7
2017-Dec-11 10:31N 17°08' W 061°54'4 8.5
2017-Dec-11 10:01N 17°11' W 061°58'5 9.9
2017-Dec-11 09:31N 17°14' W 062°02'5 9.9
2017-Dec-11 09:01N 17°17' W 062°06'5 9.9
2017-Dec-11 08:31N 17°20' W 062°10'510.2
2017-Dec-11 08:00N 17°23' W 062°14'510.1
2017-Dec-11 07:30N 17°26' W 062°19'510.2
2017-Dec-11 07:00N 17°29' W 062°23'510.0
2017-Dec-11 06:31N 17°32' W 062°27'510.0
2017-Dec-11 06:01N 17°35' W 062°31'510.2
2017-Dec-11 05:31N 17°38' W 062°36'510.0
2017-Dec-11 05:01N 17°41' W 062°40'510.0
2017-Dec-11 04:29N 17°44' W 062°44'5 9.9
2017-Dec-11 03:56N 17°48' W 062°49'710.0
2017-Dec-11 03:16N 17°52' W 062°54'2 8.7
2017-Dec-11 02:59N 17°54' W 062°54'2 2.4
2017-Dec-11 02:16N 17°54' W 062°52'0 0.0
2017-Dec-10 19:49N 17°54' W 062°52'0 0.0
2017-Dec-10 19:25N 17°54' W 062°52'0 0.0
2017-Dec-10 15:13N 17°54' W 062°52'3 1.2
2017-Dec-10 12:24N 17°52' W 062°54'814.8
2017-Dec-10 11:53N 17°44' W 062°55'614.7
2017-Dec-10 11:27N 17°38' W 062°54'1114.4
2017-Dec-10 10:40N 17°26' W 062°54'414.0
2017-Dec-10 10:25N 17°23' W 062°54'3215.9
2017-Dec-10 08:23N 16°53' W 062°42'1016.0
2017-Dec-10 07:46N 16°45' W 062°36'415.7
2017-Dec-10 07:31N 16°41' W 062°34'815.9
2017-Dec-10 07:01N 16°34' W 062°30'816.3
2017-Dec-10 06:31N 16°28' W 062°25'816.2
2017-Dec-10 06:01N 16°21' W 062°21'816.4
2017-Dec-10 05:30N 16°14' W 062°16'916.6
2017-Dec-10 04:59N 16°06' W 062°11'4216.7
2017-Dec-10 02:26N 15°31' W 061°47'916.4
2017-Dec-10 01:52N 15°23' W 061°42'616.7
2017-Dec-10 01:30N 15°17' W 061°39'816.6
2017-Dec-10 01:00N 15°11' W 061°34'3016.0
2017-Dec-09 23:08N 14°46' W 061°17'216.4
2017-Dec-09 22:59N 14°43' W 061°16'816.2
2017-Dec-09 22:30N 14°38' W 061°10'612.2
2017-Dec-09 22:01N 14°36' W 061°05'0 0.2
2017-Dec-09 20:15N 14°36' W 061°04'0 0.0
2017-Dec-09 20:00N 14°36' W 061°04'0 0.0
2017-Dec-09 19:18N 14°36' W 061°04'0 0.0
2017-Dec-09 19:00N 14°36' W 061°04'0 0.0
2017-Dec-09 18:15N 14°36' W 061°04'0 0.0
2017-Dec-09 17:54N 14°36' W 061°04'0 0.0
2017-Dec-09 12:14N 14°36' W 061°04'0 1.4
2017-Dec-09 12:00N 14°36' W 061°05'5 8.0
2017-Dec-09 11:25N 14°33' W 061°09'3 7.6
2017-Dec-09 11:00N 14°32' W 061°11'3 5.7
2017-Dec-09 10:30N 14°29' W 061°13'4 8.5
2017-Dec-09 10:00N 14°25' W 061°12'4 8.3
2017-Dec-09 09:30N 14°21' W 061°13'4 8.1
2017-Dec-09 09:00N 14°17' W 061°13'4 8.2
2017-Dec-09 08:30N 14°13' W 061°14'5 8.0
2017-Dec-09 07:57N 14°08' W 061°14'  
2017-Dec-02 14:24N 00°11' W 050°45'614.2
2017-Dec-02 14:00N 00°10' W 050°50'714.8
2017-Dec-02 13:30N 00°08' W 050°57'816.1
2017-Dec-02 13:00N 00°01' W 051°01'815.8
2017-Dec-02 12:31S 00°05' W 051°07'713.3
2017-Dec-02 12:01S 00°08' W 051°12'611.3
2017-Dec-02 11:31S 00°12' W 051°17'  

Dump ship's entire track history